createdAt,value
2022-09-24T00:01:07.513Z,8.40
2022-09-24T00:02:39.108Z,8.40
2022-09-24T00:04:12.518Z,8.39
2022-09-24T00:05:44.547Z,8.35
2022-09-24T00:07:16.410Z,8.33
2022-09-24T00:08:49.121Z,8.31
2022-09-24T00:10:20.779Z,8.31
2022-09-24T00:11:55.161Z,8.29
2022-09-24T00:13:26.715Z,8.26
2022-09-24T00:14:58.239Z,8.24
2022-09-24T00:16:31.925Z,8.21
2022-09-24T00:18:03.938Z,8.22
2022-09-24T00:19:35.531Z,8.20
2022-09-24T00:21:36.528Z,8.18
2022-09-24T00:23:08.621Z,8.20
2022-09-24T00:24:58.840Z,8.22
2022-09-24T00:26:49.027Z,8.24
2022-09-24T00:28:20.587Z,8.22
2022-09-24T00:29:52.085Z,8.22
2022-09-24T00:31:23.642Z,8.15
2022-09-24T00:32:55.405Z,8.12
2022-09-24T00:34:27.200Z,8.11
2022-09-24T00:35:59.529Z,8.09
2022-09-24T00:37:31.065Z,8.05
2022-09-24T00:39:03.452Z,7.99
2022-09-24T00:40:35.883Z,7.96
2022-09-24T00:42:07.534Z,7.95
2022-09-24T00:43:39.317Z,7.94
2022-09-24T00:45:11.035Z,7.90
2022-09-24T00:46:42.927Z,7.86
2022-09-24T00:48:14.634Z,7.82
2022-09-24T00:49:48.266Z,7.80
2022-09-24T00:51:21.056Z,7.79
2022-09-24T00:52:57.002Z,7.77
2022-09-24T00:54:28.803Z,7.74
2022-09-24T00:56:01.103Z,7.72
2022-09-24T00:57:33.139Z,7.72
2022-09-24T00:59:05.010Z,7.74
2022-09-24T01:00:39.459Z,7.73
2022-09-24T01:02:11.265Z,7.71
2022-09-24T01:03:42.825Z,7.69
2022-09-24T01:05:14.594Z,7.68
2022-09-24T01:06:46.287Z,7.69
2022-09-24T01:08:18.433Z,7.65
2022-09-24T01:09:50.189Z,7.63
2022-09-24T01:11:51.281Z,7.64
2022-09-24T01:13:43.550Z,7.63
2022-09-24T01:15:18.369Z,7.65
2022-09-24T01:17:07.948Z,7.65
2022-09-24T01:19:00.957Z,7.63
2022-09-24T01:20:43.656Z,7.56
2022-09-24T01:22:20.939Z,7.48
2022-09-24T01:24:10.737Z,7.43
2022-09-24T01:26:01.344Z,7.41
2022-09-24T01:27:33.343Z,7.34
2022-09-24T01:29:23.461Z,7.28
2022-09-24T01:30:56.410Z,7.24
2022-09-24T01:32:32.298Z,7.21
2022-09-24T01:34:05.947Z,7.17
2022-09-24T01:35:38.119Z,7.15
2022-09-24T01:37:09.734Z,7.12
2022-09-24T01:38:42.198Z,7.08
2022-09-24T01:40:14.297Z,7.04
2022-09-24T01:41:46.021Z,7.02
2022-09-24T01:43:18.090Z,6.97
2022-09-24T01:44:50.543Z,6.95
2022-09-24T01:46:22.183Z,6.92
2022-09-24T01:47:53.850Z,6.91
2022-09-24T01:49:25.382Z,6.91
2022-09-24T01:51:04.283Z,6.92
2022-09-24T01:52:39.483Z,6.90
2022-09-24T01:54:12.826Z,6.93
2022-09-24T01:55:45.742Z,6.92
2022-09-24T01:57:24.363Z,6.89
2022-09-24T01:59:16.259Z,6.86
2022-09-24T02:00:47.978Z,6.79
2022-09-24T02:02:30.144Z,6.80
2022-09-24T02:04:06.406Z,6.83
2022-09-24T02:05:39.048Z,6.83
2022-09-24T02:07:13.507Z,6.83
2022-09-24T02:08:45.964Z,6.80
2022-09-24T02:10:18.152Z,6.79
2022-09-24T02:11:51.018Z,6.78
2022-09-24T02:13:25.256Z,6.75
2022-09-24T02:15:07.665Z,6.73
2022-09-24T02:16:41.055Z,6.70
2022-09-24T02:18:12.981Z,6.65
2022-09-24T02:19:44.564Z,6.63
2022-09-24T02:21:18.150Z,6.62
2022-09-24T02:22:49.800Z,6.60
2022-09-24T02:24:23.250Z,6.62
2022-09-24T02:25:59.106Z,6.59
2022-09-24T02:27:31.511Z,6.52
2022-09-24T02:29:03.024Z,6.50
2022-09-24T02:30:38.085Z,6.49
2022-09-24T02:32:10.418Z,6.47
2022-09-24T02:34:04.302Z,6.46
2022-09-24T02:35:40.909Z,6.46
2022-09-24T02:37:12.574Z,6.46
2022-09-24T02:38:46.461Z,6.47
2022-09-24T02:40:18.109Z,6.46
2022-09-24T02:41:49.837Z,6.46
2022-09-24T02:43:21.626Z,6.48
2022-09-24T02:44:55.603Z,6.54
2022-09-24T02:46:27.307Z,6.56
2022-09-24T02:47:58.956Z,6.59
2022-09-24T02:49:30.665Z,6.63
2022-09-24T02:51:04.232Z,6.62
2022-09-24T02:52:35.845Z,6.58
2022-09-24T02:54:07.683Z,6.56
2022-09-24T02:55:39.353Z,6.53
2022-09-24T02:57:11.109Z,6.53
2022-09-24T02:58:43.477Z,6.50
2022-09-24T03:00:15.270Z,6.44
2022-09-24T03:01:47.206Z,6.40
2022-09-24T03:03:18.922Z,6.36
2022-09-24T03:04:52.026Z,6.30
2022-09-24T03:06:25.141Z,6.26
2022-09-24T03:07:58.944Z,6.17
2022-09-24T03:09:30.516Z,6.08
2022-09-24T03:11:02.194Z,6.00
2022-09-24T03:12:33.846Z,5.95
2022-09-24T03:14:05.631Z,5.90
2022-09-24T03:15:37.170Z,5.89
2022-09-24T03:17:08.699Z,5.86
2022-09-24T03:18:40.289Z,5.83
2022-09-24T03:20:11.772Z,5.82
2022-09-24T03:21:43.324Z,5.83
2022-09-24T03:23:14.972Z,5.83
2022-09-24T03:24:46.531Z,5.87
2022-09-24T03:26:18.222Z,5.91
2022-09-24T03:27:49.722Z,5.97
2022-09-24T03:29:41.297Z,5.98
2022-09-24T03:31:13.050Z,5.96
2022-09-24T03:32:44.702Z,6.00
2022-09-24T03:34:16.251Z,6.04
2022-09-24T03:35:47.757Z,6.04
2022-09-24T03:37:19.294Z,6.02
2022-09-24T03:38:51.438Z,5.99
2022-09-24T03:40:23.176Z,5.97
2022-09-24T03:41:54.852Z,5.95
2022-09-24T03:43:26.596Z,5.93
2022-09-24T03:44:59.187Z,5.93
2022-09-24T03:46:30.857Z,5.93
2022-09-24T03:48:02.534Z,5.94
2022-09-24T03:49:34.153Z,5.93
2022-09-24T03:51:06.379Z,5.93
2022-09-24T03:52:39.042Z,5.96
2022-09-24T03:54:11.014Z,5.99
2022-09-24T03:56:02.994Z,6.02
2022-09-24T03:57:34.657Z,6.04
2022-09-24T03:59:06.373Z,6.05
2022-09-24T04:00:41.072Z,6.04
2022-09-24T04:02:13.244Z,6.03
2022-09-24T04:03:44.933Z,6.00
2022-09-24T04:05:16.587Z,5.96
2022-09-24T04:06:48.130Z,5.95
2022-09-24T04:08:20.148Z,5.95
2022-09-24T04:09:51.712Z,5.92
2022-09-24T04:11:24.225Z,5.89
2022-09-24T04:12:56.116Z,5.92
2022-09-24T04:14:27.826Z,5.91
2022-09-24T04:16:05.609Z,5.89
2022-09-24T04:17:37.331Z,5.84
2022-09-24T04:19:09.063Z,5.81
2022-09-24T04:20:40.766Z,5.77
2022-09-24T04:22:12.495Z,5.77
2022-09-24T04:23:44.107Z,5.79
2022-09-24T04:25:15.842Z,5.80
2022-09-24T04:26:47.396Z,5.86
2022-09-24T04:28:19.017Z,5.89
2022-09-24T04:29:50.747Z,5.93
2022-09-24T04:31:23.863Z,5.95
2022-09-24T04:32:55.539Z,5.97
2022-09-24T04:34:27.083Z,5.99
2022-09-24T04:35:58.649Z,6.00
2022-09-24T04:37:30.339Z,5.99
2022-09-24T04:39:03.574Z,5.97
2022-09-24T04:40:35.545Z,5.95
2022-09-24T04:42:07.412Z,5.97
2022-09-24T04:43:39.127Z,5.94
2022-09-24T04:45:11.073Z,5.89
2022-09-24T04:46:43.141Z,5.87
2022-09-24T04:48:14.926Z,5.91
2022-09-24T04:49:46.586Z,5.98
2022-09-24T04:51:19.795Z,6.06
2022-09-24T04:52:51.613Z,6.08
2022-09-24T04:54:23.615Z,6.08
2022-09-24T04:55:55.391Z,6.12
2022-09-24T04:57:27.474Z,6.21
2022-09-24T04:58:59.493Z,6.32
2022-09-24T05:00:33.217Z,6.39
2022-09-24T05:02:09.508Z,6.44
2022-09-24T05:03:42.276Z,6.56
2022-09-24T05:05:14.079Z,6.70
2022-09-24T05:06:45.736Z,6.84
2022-09-24T05:08:17.426Z,6.98
2022-09-24T05:09:49.050Z,7.11
2022-09-24T05:11:21.166Z,7.23
2022-09-24T05:12:53.210Z,7.34
2022-09-24T05:14:25.346Z,7.44
2022-09-24T05:15:57.059Z,7.56
2022-09-24T05:17:28.963Z,7.68
2022-09-24T05:19:01.642Z,7.80
2022-09-24T05:20:33.515Z,7.87
2022-09-24T05:22:05.333Z,7.89
2022-09-24T05:23:37.488Z,7.93
2022-09-24T05:25:09.564Z,8.04
2022-09-24T05:26:59.891Z,8.16
2022-09-24T05:28:33.459Z,8.30
2022-09-24T05:30:06.534Z,8.42
2022-09-24T05:31:38.429Z,8.55
2022-09-24T05:33:10.417Z,8.63
2022-09-24T05:34:45.807Z,8.69
2022-09-24T05:36:18.754Z,8.78
2022-09-24T05:37:53.589Z,8.86
2022-09-24T05:39:28.904Z,8.93
2022-09-24T05:41:04.063Z,8.95
2022-09-24T05:42:35.964Z,8.96
2022-09-24T05:44:08.011Z,8.93
2022-09-24T05:45:42.128Z,8.87
2022-09-24T05:47:14.079Z,8.83
2022-09-24T05:48:45.811Z,8.89
2022-09-24T05:50:17.634Z,8.95
2022-09-24T05:51:50.664Z,9.00
2022-09-24T05:53:23.492Z,9.04
2022-09-24T05:54:55.336Z,9.12
2022-09-24T05:56:27.037Z,9.25
2022-09-24T05:58:06.239Z,9.37
2022-09-24T05:59:38.476Z,9.55
2022-09-24T06:01:10.672Z,9.76
2022-09-24T06:02:43.075Z,9.88
2022-09-24T06:04:15.349Z,10.06
2022-09-24T06:05:49.207Z,10.20
2022-09-24T06:07:22.103Z,10.38
2022-09-24T06:08:53.937Z,10.55
2022-09-24T06:10:26.684Z,10.74
2022-09-24T06:11:58.893Z,10.86
2022-09-24T06:13:32.294Z,10.95
2022-09-24T06:15:04.719Z,11.01
2022-09-24T06:16:36.881Z,11.03
2022-09-24T06:18:09.052Z,11.19
2022-09-24T06:19:40.810Z,11.22
2022-09-24T06:21:13.383Z,11.28
2022-09-24T06:22:45.229Z,11.34
2022-09-24T06:24:16.934Z,11.31
2022-09-24T06:25:52.263Z,11.34
2022-09-24T06:27:24.045Z,11.48
2022-09-24T06:46:02.217Z,12.49
2022-09-24T06:47:33.826Z,12.82
2022-09-24T06:49:05.683Z,13.10
2022-09-24T06:50:38.355Z,13.23
2022-09-24T06:52:10.336Z,13.33
2022-09-24T06:53:41.981Z,13.47
2022-09-24T06:55:13.672Z,13.64
2022-09-24T06:56:45.342Z,13.86
2022-09-24T06:58:18.312Z,14.06
2022-09-24T06:59:51.711Z,14.19
2022-09-24T07:01:23.493Z,14.28
2022-09-24T07:02:55.228Z,14.30
2022-09-24T07:04:26.943Z,14.28
2022-09-24T07:06:02.674Z,14.41
2022-09-24T07:07:34.577Z,14.50
2022-09-24T07:09:06.325Z,14.55
2022-09-24T07:10:42.433Z,14.49
2022-09-24T07:12:14.421Z,14.56
2022-09-24T07:13:46.185Z,14.63
2022-09-24T07:15:18.065Z,14.81
2022-09-24T07:16:49.836Z,14.95
2022-09-24T07:18:21.721Z,15.04
2022-09-24T07:19:53.525Z,14.97
2022-09-24T07:21:25.097Z,15.01
2022-09-24T07:22:56.968Z,15.11
2022-09-24T07:24:28.979Z,15.24
2022-09-24T07:26:00.869Z,15.30
2022-09-24T07:27:33.330Z,15.39
2022-09-24T07:29:05.428Z,15.54
2022-09-24T07:30:37.120Z,15.66
2022-09-24T07:32:08.840Z,15.74
2022-09-24T07:33:40.604Z,15.60
2022-09-24T07:35:12.361Z,15.60
2022-09-24T07:36:44.671Z,15.82
2022-09-24T07:38:16.996Z,16.05
2022-09-24T07:39:48.578Z,16.14
2022-09-24T07:41:20.582Z,16.17
2022-09-24T07:42:52.433Z,16.10
2022-09-24T07:44:24.213Z,16.11
2022-09-24T07:45:55.905Z,16.25
2022-09-24T07:47:27.681Z,16.43
2022-09-24T07:48:59.507Z,16.56
2022-09-24T07:50:32.079Z,16.58
2022-09-24T07:52:03.831Z,16.61
2022-09-24T07:53:35.585Z,16.70
2022-09-24T07:55:07.894Z,16.77
2022-09-24T07:56:40.127Z,16.83
2022-09-24T07:58:14.905Z,16.92
2022-09-24T07:59:47.231Z,17.01
2022-09-24T08:01:19.415Z,17.17
2022-09-24T08:02:54.437Z,17.35
2022-09-24T08:04:26.368Z,17.38
2022-09-24T08:06:01.024Z,17.47
2022-09-24T08:07:32.709Z,17.63
2022-09-24T08:09:04.892Z,17.76
2022-09-24T08:10:37.156Z,17.82
2022-09-24T08:12:09.776Z,17.79
2022-09-24T08:13:41.759Z,17.82
2022-09-24T08:15:14.341Z,17.87
2022-09-24T08:16:46.474Z,17.89
2022-09-24T08:18:18.388Z,17.86
2022-09-24T08:19:52.428Z,17.95
2022-09-24T08:21:24.147Z,17.99
2022-09-24T08:23:01.014Z,17.92
2022-09-24T08:24:32.747Z,17.95
2022-09-24T08:26:05.884Z,18.12
2022-09-24T08:27:38.168Z,18.26
2022-09-24T08:29:10.034Z,18.33
2022-09-24T08:30:42.560Z,18.41
2022-09-24T08:32:14.465Z,18.46
2022-09-24T08:33:50.898Z,18.47
2022-09-24T08:35:22.876Z,18.57
2022-09-24T08:36:54.985Z,18.64
2022-09-24T08:38:27.644Z,18.69
2022-09-24T08:39:59.315Z,18.80
2022-09-24T08:41:34.351Z,18.83
2022-09-24T08:43:24.412Z,18.93
2022-09-24T08:45:16.037Z,18.99
2022-09-24T08:47:09.479Z,19.08
2022-09-24T08:48:42.510Z,19.15
2022-09-24T08:50:18.486Z,19.26
2022-09-24T08:52:10.997Z,19.41
2022-09-24T08:53:58.435Z,19.48
2022-09-24T08:55:36.080Z,19.41
2022-09-24T08:57:12.278Z,19.44
2022-09-24T08:59:00.095Z,19.61
2022-09-24T09:00:32.214Z,19.74
2022-09-24T09:02:04.728Z,19.81
2022-09-24T09:03:39.588Z,19.80
2022-09-24T09:05:28.261Z,19.91
2022-09-24T09:07:13.163Z,19.99
2022-09-24T09:09:05.615Z,20.08
2022-09-24T09:10:40.287Z,19.96
2022-09-24T09:12:25.865Z,19.75
2022-09-24T09:14:10.504Z,19.65
2022-09-24T09:15:50.512Z,19.44
2022-09-24T09:17:43.751Z,19.33
2022-09-24T09:19:17.870Z,19.33
2022-09-24T09:20:49.862Z,19.44
2022-09-24T09:22:34.565Z,19.68
2022-09-24T09:24:06.453Z,20.01
2022-09-24T09:25:38.244Z,20.22
2022-09-24T09:27:20.377Z,20.35
2022-09-24T09:29:14.300Z,20.42
2022-09-24T09:31:07.443Z,20.47
2022-09-24T09:33:01.287Z,20.67
2022-09-24T09:34:52.325Z,20.66
2022-09-24T09:36:30.379Z,20.58
2022-09-24T09:38:09.713Z,20.52
2022-09-24T09:39:44.589Z,20.67
2022-09-24T09:41:34.473Z,20.84
2022-09-24T09:43:15.408Z,20.96
2022-09-24T09:44:47.102Z,20.96
2022-09-24T09:46:21.150Z,20.78
2022-09-24T09:47:56.146Z,20.89
2022-09-24T09:49:29.455Z,21.05
2022-09-24T09:51:05.744Z,21.22
2022-09-24T09:52:38.843Z,21.25
2022-09-24T09:54:14.200Z,21.33
2022-09-24T09:55:46.381Z,21.43
2022-09-24T09:57:22.191Z,21.55
2022-09-24T09:59:01.687Z,21.64
2022-09-24T10:00:34.861Z,21.72
2022-09-24T10:02:21.581Z,21.82
2022-09-24T10:03:55.590Z,21.87
2022-09-24T10:05:29.650Z,21.97
2022-09-24T10:07:19.323Z,21.85
2022-09-24T10:08:56.952Z,21.93
2022-09-24T10:10:28.903Z,21.94
2022-09-24T10:12:27.150Z,22.08
2022-09-24T10:14:02.712Z,22.32
2022-09-24T10:15:34.544Z,22.37
2022-09-24T10:17:07.213Z,22.47
2022-09-24T10:18:38.986Z,22.41
2022-09-24T10:20:24.524Z,22.35
2022-09-24T10:21:57.918Z,22.33
2022-09-24T10:23:49.937Z,22.33
2022-09-24T10:25:26.421Z,22.42
2022-09-24T10:26:59.091Z,22.50
2022-09-24T10:28:49.422Z,22.37
2022-09-24T10:30:36.313Z,22.14
2022-09-24T10:32:17.698Z,22.01
2022-09-24T10:33:50.390Z,22.07
2022-09-24T10:35:30.378Z,22.15
2022-09-24T10:37:07.278Z,22.32
2022-09-24T10:38:46.422Z,22.32
2022-09-24T10:40:24.963Z,22.30
2022-09-24T10:41:59.667Z,22.11
2022-09-24T10:43:32.389Z,22.16
2022-09-24T10:45:05.100Z,22.18
2022-09-24T10:46:43.255Z,22.08
2022-09-24T10:48:26.840Z,22.15
2022-09-24T10:50:04.653Z,22.17
2022-09-24T10:51:40.100Z,22.15
2022-09-24T10:53:18.610Z,22.00
2022-09-24T10:55:26.367Z,21.93
2022-09-24T10:56:58.196Z,22.32
2022-09-24T10:58:53.461Z,22.62
2022-09-24T11:00:27.413Z,22.87
2022-09-24T11:02:09.639Z,22.91
2022-09-24T11:03:59.416Z,22.97
2022-09-24T11:05:33.298Z,23.11
2022-09-24T11:07:25.208Z,23.33
2022-09-24T11:09:15.671Z,23.61
2022-09-24T11:11:06.808Z,23.81
2022-09-24T11:12:41.947Z,23.93
2022-09-24T11:14:24.862Z,23.98
2022-09-24T11:16:18.885Z,23.59
2022-09-24T11:18:03.019Z,23.17
2022-09-24T11:19:57.353Z,22.91
2022-09-24T11:21:38.039Z,22.74
2022-09-24T11:23:18.302Z,22.58
2022-09-24T11:24:57.260Z,22.63
2022-09-24T11:27:09.520Z,22.63
2022-09-24T11:29:12.138Z,22.77
2022-09-24T11:31:10.258Z,22.84
2022-09-24T11:32:48.030Z,22.80
2022-09-24T11:36:50.542Z,23.03
2022-09-24T11:38:33.879Z,23.31
2022-09-24T11:42:42.952Z,23.38
2022-09-24T11:44:26.461Z,23.61
2022-09-24T11:46:20.981Z,23.73
2022-09-24T11:48:00.634Z,23.96
2022-09-24T11:50:12.955Z,24.09
2022-09-24T11:51:55.851Z,24.26
2022-09-24T11:54:09.125Z,24.47
2022-09-24T11:58:39.058Z,24.90
2022-09-24T12:00:23.675Z,24.49
2022-09-24T12:02:37.351Z,24.14
2022-09-24T12:04:14.993Z,23.66
2022-09-24T12:06:05.746Z,23.50
2022-09-24T12:07:43.796Z,23.63
2022-09-24T12:09:20.433Z,23.77
2022-09-24T12:11:26.821Z,24.02
2022-09-24T12:13:21.605Z,24.18
2022-09-24T12:14:58.432Z,24.33
2022-09-24T12:16:33.562Z,24.40
2022-09-24T12:19:39.971Z,24.07
2022-09-24T12:21:22.449Z,23.74
2022-09-24T12:23:06.904Z,23.56
2022-09-24T12:24:58.932Z,23.59
2022-09-24T12:26:31.900Z,23.59
2022-09-24T12:28:03.650Z,23.74
2022-09-24T12:29:59.376Z,23.77
2022-09-24T12:31:51.657Z,24.07
2022-09-24T12:33:28.450Z,24.21
2022-09-24T12:35:09.519Z,24.24
2022-09-24T12:36:41.269Z,24.02
2022-09-24T12:38:12.930Z,24.04
2022-09-24T12:39:50.189Z,23.99
2022-09-24T12:41:27.590Z,23.96
2022-09-24T12:42:59.374Z,24.05
2022-09-24T12:44:37.008Z,24.21
2022-09-24T12:46:13.446Z,24.25
2022-09-24T12:47:55.817Z,24.19
2022-09-24T12:49:31.639Z,23.95
2022-09-24T12:51:10.418Z,23.77
2022-09-24T12:52:42.274Z,23.88
2022-09-24T12:54:49.700Z,24.17
2022-09-24T12:56:24.123Z,24.51
2022-09-24T12:57:58.352Z,24.57
2022-09-24T12:59:30.217Z,24.69
2022-09-24T13:01:14.662Z,24.67
2022-09-24T13:02:53.519Z,24.51
2022-09-24T13:04:26.352Z,24.38
2022-09-24T13:06:00.388Z,24.50
2022-09-24T13:07:33.490Z,24.68
2022-09-24T13:09:26.249Z,24.87
2022-09-24T13:11:08.040Z,25.07
2022-09-24T13:12:40.357Z,24.74
2022-09-24T13:14:21.744Z,24.46
2022-09-24T13:16:00.903Z,24.33
2022-09-24T13:17:38.239Z,24.22
2022-09-24T13:19:43.893Z,24.26
2022-09-24T13:21:34.656Z,24.01
2022-09-24T13:23:12.858Z,23.77
2022-09-24T13:24:49.273Z,23.74
2022-09-24T13:28:56.841Z,23.93
2022-09-24T13:30:39.549Z,23.87
2022-09-24T13:32:14.785Z,23.53
2022-09-24T13:33:48.532Z,23.42
2022-09-24T13:35:22.274Z,23.47
2022-09-24T13:36:59.116Z,23.55
2022-09-24T13:38:33.972Z,23.61
2022-09-24T13:40:16.934Z,23.67
2022-09-24T13:42:09.492Z,23.60
2022-09-24T13:44:00.032Z,23.59
2022-09-24T13:45:32.277Z,23.63
2022-09-24T13:47:12.615Z,23.53
2022-09-24T13:48:54.175Z,23.49
2022-09-24T13:50:28.365Z,23.58
2022-09-24T13:52:08.843Z,23.66
2022-09-24T13:53:52.144Z,23.64
2022-09-24T13:55:36.053Z,23.53
2022-09-24T13:57:34.300Z,23.49
2022-09-24T13:59:07.365Z,23.44
2022-09-24T14:00:39.738Z,23.31
2022-09-24T14:02:28.110Z,23.24
2022-09-24T14:04:03.824Z,23.30
2022-09-24T14:05:37.486Z,23.43
2022-09-24T14:07:09.773Z,23.48
2022-09-24T14:08:46.706Z,23.52
2022-09-24T14:10:18.449Z,23.51
2022-09-24T14:11:51.030Z,23.38
2022-09-24T14:13:23.626Z,23.33
2022-09-24T14:15:02.179Z,23.31
2022-09-24T14:17:05.010Z,23.21
2022-09-24T14:18:40.347Z,23.04
2022-09-24T14:20:34.706Z,22.81
2022-09-24T14:24:07.557Z,22.69
2022-09-24T14:25:40.411Z,22.85
2022-09-24T14:27:32.907Z,22.74
2022-09-24T14:29:09.560Z,22.63
2022-09-24T14:30:58.233Z,22.60
2022-09-24T14:32:41.545Z,22.54
2022-09-24T14:34:28.146Z,22.50
2022-09-24T14:35:59.970Z,22.41
2022-09-24T14:37:33.267Z,22.34
2022-09-24T14:39:05.875Z,22.26
2022-09-24T14:40:44.597Z,22.26
2022-09-24T14:42:22.834Z,22.24
2022-09-24T14:44:07.275Z,22.29
2022-09-24T14:45:50.486Z,22.37
2022-09-24T14:48:11.894Z,22.37
2022-09-24T14:49:49.574Z,22.16
2022-09-24T14:51:32.071Z,22.07
2022-09-24T14:53:31.563Z,22.07
2022-09-24T14:55:56.594Z,22.13
2022-09-24T14:57:28.705Z,22.12
2022-09-24T14:59:36.926Z,22.20
2022-09-24T15:01:18.042Z,22.18
2022-09-24T15:03:02.012Z,22.02
2022-09-24T15:04:34.386Z,21.90
2022-09-24T15:06:10.024Z,21.79
2022-09-24T15:07:42.619Z,21.78
2022-09-24T15:09:58.295Z,21.81
2022-09-24T15:16:42.033Z,21.71
2022-09-24T15:18:23.065Z,21.65
2022-09-24T15:20:39.511Z,21.54
2022-09-24T15:22:23.089Z,21.38
2022-09-24T15:23:56.087Z,21.30
2022-09-24T15:25:45.497Z,21.22
2022-09-24T15:28:07.437Z,21.09
2022-09-24T15:29:37.035Z,21.01
2022-09-24T15:31:19.388Z,20.90
2022-09-24T15:32:57.605Z,20.79
2022-09-24T15:34:30.229Z,20.72
2022-09-24T15:36:22.135Z,20.70
2022-09-24T15:37:56.392Z,20.68
2022-09-24T15:39:28.219Z,20.64
2022-09-24T15:41:02.447Z,20.65
2022-09-24T15:42:34.317Z,20.67
2022-09-24T15:44:06.983Z,20.73
2022-09-24T15:45:57.497Z,20.74
2022-09-24T15:47:30.990Z,20.58
2022-09-24T15:49:03.598Z,20.57
2022-09-24T15:50:41.839Z,20.57
2022-09-24T15:52:15.699Z,20.55
2022-09-24T15:53:51.296Z,20.50
2022-09-24T15:55:25.912Z,20.54
2022-09-24T15:56:57.803Z,20.59
2022-09-24T15:58:30.707Z,20.61
2022-09-24T16:00:03.186Z,20.60
2022-09-24T16:01:35.465Z,20.62
2022-09-24T16:03:16.501Z,20.61
2022-09-24T16:04:48.633Z,20.66
2022-09-24T16:06:21.905Z,20.65
2022-09-24T16:07:57.052Z,20.62
2022-09-24T16:09:29.260Z,20.61
2022-09-24T16:11:04.767Z,20.65
2022-09-24T16:12:38.865Z,20.74
2022-09-24T16:14:11.025Z,20.86
2022-09-24T16:15:42.997Z,20.97
2022-09-24T16:17:15.819Z,20.99
2022-09-24T16:18:47.910Z,20.92
2022-09-24T16:20:20.423Z,20.87
2022-09-24T16:21:52.811Z,20.78
2022-09-24T16:23:25.339Z,20.67
2022-09-24T16:24:57.428Z,20.55
2022-09-24T16:26:29.858Z,20.44
2022-09-24T16:28:01.817Z,20.33
2022-09-24T16:29:34.054Z,20.17
2022-09-24T16:31:07.550Z,20.03
2022-09-24T16:32:39.461Z,19.84
2022-09-24T16:34:11.841Z,19.75
2022-09-24T16:35:44.141Z,19.71
2022-09-24T16:37:17.829Z,19.67
2022-09-24T16:38:49.823Z,19.62
2022-09-24T16:40:23.355Z,19.50
2022-09-24T16:41:55.568Z,19.43
2022-09-24T16:43:27.453Z,19.37
2022-09-24T16:44:59.252Z,19.28
2022-09-24T16:46:31.987Z,19.14
2022-09-24T16:48:03.943Z,19.10
2022-09-24T16:49:35.711Z,19.09
2022-09-24T16:51:08.088Z,19.09
2022-09-24T16:52:40.525Z,19.06
2022-09-24T16:54:14.294Z,19.03
2022-09-24T16:55:45.905Z,18.98
2022-09-24T16:57:17.544Z,18.91
2022-09-24T16:58:49.559Z,18.80
2022-09-24T17:00:21.292Z,18.78
2022-09-24T17:01:54.368Z,18.76
2022-09-24T17:03:26.440Z,18.71
2022-09-24T17:05:01.504Z,18.71
2022-09-24T17:06:34.619Z,18.67
2022-09-24T17:08:06.620Z,18.66
2022-09-24T17:09:56.798Z,18.63
2022-09-24T17:11:28.660Z,18.48
2022-09-24T17:13:02.517Z,18.40
2022-09-24T17:14:37.163Z,18.27
2022-09-24T17:16:10.165Z,18.15
2022-09-24T17:17:49.143Z,18.10
2022-09-24T17:19:21.962Z,18.08
2022-09-24T17:21:00.555Z,18.05
2022-09-24T17:22:32.740Z,18.00
2022-09-24T17:24:04.604Z,17.94
2022-09-24T17:25:37.254Z,17.88
2022-09-24T17:27:09.243Z,17.92
2022-09-24T17:28:41.729Z,17.91
2022-09-24T17:30:13.752Z,17.86
2022-09-24T17:31:46.166Z,17.84
2022-09-24T17:33:41.764Z,17.78
2022-09-24T17:35:09.946Z,17.61
2022-09-24T17:36:41.802Z,17.47
2022-09-24T17:38:17.887Z,17.40
2022-09-24T17:39:49.690Z,17.39
2022-09-24T17:41:21.699Z,17.41
2022-09-24T17:42:53.922Z,17.47
2022-09-24T17:44:26.155Z,17.51
2022-09-24T17:45:59.357Z,17.48
2022-09-24T17:47:53.830Z,17.41
2022-09-24T17:49:25.659Z,17.41
2022-09-24T17:50:58.410Z,17.36
2022-09-24T17:52:30.231Z,17.30
2022-09-24T17:54:02.855Z,17.23
2022-09-24T17:55:35.151Z,17.21
2022-09-24T17:57:07.222Z,17.16
2022-09-24T17:58:39.883Z,17.14
2022-09-24T18:00:12.116Z,17.11
2022-09-24T18:01:44.649Z,17.06
2022-09-24T18:03:16.800Z,17.09
2022-09-24T18:04:48.650Z,17.08
2022-09-24T18:06:21.007Z,17.04
2022-09-24T18:07:52.834Z,16.97
2022-09-24T18:09:25.226Z,16.89
2022-09-24T18:11:03.725Z,16.83
2022-09-24T18:12:35.566Z,16.78
2022-09-24T18:14:07.925Z,16.76
2022-09-24T18:15:40.647Z,16.75
2022-09-24T18:17:12.543Z,16.78
2022-09-24T18:18:44.585Z,16.75
2022-09-24T18:20:16.646Z,16.70
2022-09-24T18:21:51.394Z,16.65
2022-09-24T18:23:23.291Z,16.61
2022-09-24T18:24:56.869Z,16.61
2022-09-24T18:26:29.959Z,16.60
2022-09-24T18:28:03.369Z,16.59
2022-09-24T18:29:35.516Z,16.56
2022-09-24T18:31:08.317Z,16.49
2022-09-24T18:32:40.837Z,16.44
2022-09-24T18:34:13.934Z,16.47
2022-09-24T18:35:45.972Z,16.46
2022-09-24T18:37:17.726Z,16.41
2022-09-24T18:38:49.886Z,16.33
2022-09-24T18:40:21.897Z,16.28
2022-09-24T18:41:53.937Z,16.22
2022-09-24T18:43:25.966Z,16.23
2022-09-24T18:44:58.178Z,16.23
2022-09-24T18:46:30.360Z,16.21
2022-09-24T18:48:02.418Z,16.20
2022-09-24T18:49:36.581Z,16.14
2022-09-24T18:51:18.033Z,16.11
2022-09-24T18:52:50.062Z,16.12
2022-09-24T18:54:21.920Z,16.10
2022-09-24T18:55:54.069Z,16.08
2022-09-24T18:57:26.611Z,16.01
2022-09-24T18:59:07.122Z,15.94
2022-09-24T19:00:52.049Z,15.91
2022-09-24T19:02:25.779Z,15.90
2022-09-24T19:04:01.247Z,15.90
2022-09-24T19:05:33.861Z,15.90
2022-09-24T19:07:08.268Z,15.90
2022-09-24T19:08:40.670Z,15.82
2022-09-24T19:10:12.631Z,15.74
2022-09-24T19:11:45.937Z,15.72
2022-09-24T19:13:21.374Z,15.76
2022-09-24T19:14:58.035Z,15.79
2022-09-24T19:16:30.046Z,15.80
2022-09-24T19:18:02.028Z,15.71
2022-09-24T19:19:33.877Z,15.57
2022-09-24T19:21:09.440Z,15.46
2022-09-24T19:22:43.811Z,15.40
2022-09-24T19:24:15.847Z,15.39
2022-09-24T19:25:48.436Z,15.43
2022-09-24T19:27:21.251Z,15.44
2022-09-24T19:28:53.628Z,15.39
2022-09-24T19:30:26.024Z,15.29
2022-09-24T19:31:58.939Z,15.26
2022-09-24T19:33:31.018Z,15.32
2022-09-24T19:35:03.273Z,15.42
2022-09-24T19:36:43.390Z,15.48
2022-09-24T19:38:17.571Z,15.47
2022-09-24T19:39:49.627Z,15.50
2022-09-24T19:41:25.392Z,15.48
2022-09-24T19:42:57.437Z,15.52
2022-09-24T19:44:30.055Z,15.53
2022-09-24T19:46:03.043Z,15.54
2022-09-24T19:47:34.980Z,15.53
2022-09-24T19:49:07.608Z,15.52
2022-09-24T19:50:39.841Z,15.52
2022-09-24T19:52:12.259Z,15.53
2022-09-24T19:53:44.438Z,15.51
2022-09-24T19:55:16.490Z,15.49
2022-09-24T19:56:48.438Z,15.47
2022-09-24T19:58:20.834Z,15.43
2022-09-24T19:59:53.056Z,15.39
2022-09-24T20:01:26.560Z,15.37
2022-09-24T20:02:59.586Z,15.35
2022-09-24T20:04:31.636Z,15.37
2022-09-24T20:06:07.084Z,15.40
2022-09-24T20:07:39.685Z,15.37
2022-09-24T20:09:12.396Z,15.39
2022-09-24T20:10:46.970Z,15.37
2022-09-24T20:12:20.007Z,15.36
2022-09-24T20:13:55.556Z,15.35
2022-09-24T20:15:29.516Z,15.36
2022-09-24T20:17:01.297Z,15.36
2022-09-24T20:18:34.573Z,15.34
2022-09-24T20:20:07.646Z,15.27
2022-09-24T20:21:39.544Z,15.24
2022-09-24T20:23:11.416Z,15.23
2022-09-24T20:24:43.383Z,15.26
2022-09-24T20:26:34.208Z,15.27
2022-09-24T20:28:07.409Z,15.25
2022-09-24T20:29:43.483Z,15.27
2022-09-24T20:31:16.390Z,15.28
2022-09-24T20:32:48.732Z,15.36
2022-09-24T20:34:22.027Z,15.40
2022-09-24T20:36:00.263Z,15.38
2022-09-24T20:37:32.256Z,15.26
2022-09-24T20:39:04.869Z,15.18
2022-09-24T20:40:36.831Z,15.09
2022-09-24T20:42:09.314Z,14.97
2022-09-24T20:43:41.077Z,14.87
2022-09-24T20:45:13.413Z,14.79
2022-09-24T20:46:45.617Z,14.70
2022-09-24T20:48:17.533Z,14.63
2022-09-24T20:49:49.166Z,14.56
2022-09-24T20:51:21.468Z,14.48
2022-09-24T20:52:53.345Z,14.39
2022-09-24T20:54:25.876Z,14.32
2022-09-24T20:55:58.055Z,14.31
2022-09-24T20:57:30.776Z,14.33
2022-09-24T20:59:02.897Z,14.37
2022-09-24T21:00:37.912Z,14.41
2022-09-24T21:02:10.670Z,14.46
2022-09-24T21:03:44.787Z,14.49
2022-09-24T21:05:17.848Z,14.52
2022-09-24T21:06:49.609Z,14.56
2022-09-24T21:08:21.640Z,14.58
2022-09-24T21:09:53.546Z,14.59
2022-09-24T21:11:26.761Z,14.60
2022-09-24T21:12:58.417Z,14.67
2022-09-24T21:14:30.031Z,14.70
2022-09-24T21:16:04.777Z,14.69
2022-09-24T21:17:36.834Z,14.71
2022-09-24T21:19:09.906Z,14.71
2022-09-24T21:20:42.685Z,14.70
2022-09-24T21:22:15.100Z,14.69
2022-09-24T21:23:47.576Z,14.66
2022-09-24T21:25:42.734Z,14.59
2022-09-24T21:27:12.818Z,14.49